sensor_id;sensor_type;location;lat;lon;timestamp;P1;durP1;ratioP1;P2;durP2;ratioP2
77701;SDS011;66868;42.708;23.404;2023-05-29T00:01:24;11.77;;;7.43;;
77701;SDS011;66868;42.708;23.404;2023-05-29T00:03:50;9.68;;;6.75;;
77701;SDS011;66868;42.708;23.404;2023-05-29T00:06:16;10.25;;;6.63;;
77701;SDS011;66868;42.708;23.404;2023-05-29T00:08:41;11.88;;;6.47;;
77701;SDS011;66868;42.708;23.404;2023-05-29T00:11:06;9.20;;;6.80;;
77701;SDS011;66868;42.708;23.404;2023-05-29T00:13:32;9.18;;;6.93;;
77701;SDS011;66868;42.708;23.404;2023-05-29T00:15:57;10.73;;;7.05;;
77701;SDS011;66868;42.708;23.404;2023-05-29T00:18:24;11.35;;;6.28;;
77701;SDS011;66868;42.708;23.404;2023-05-29T00:20:50;8.85;;;6.22;;
77701;SDS011;66868;42.708;23.404;2023-05-29T00:23:17;11.18;;;6.30;;
77701;SDS011;66868;42.708;23.404;2023-05-29T00:25:43;8.45;;;6.13;;
77701;SDS011;66868;42.708;23.404;2023-05-29T00:28:09;7.65;;;5.95;;
77701;SDS011;66868;42.708;23.404;2023-05-29T00:30:34;8.23;;;6.28;;
77701;SDS011;66868;42.708;23.404;2023-05-29T00:33:00;7.93;;;5.80;;
77701;SDS011;66868;42.708;23.404;2023-05-29T00:35:25;9.27;;;6.05;;
77701;SDS011;66868;42.708;23.404;2023-05-29T00:37:50;8.73;;;6.32;;
77701;SDS011;66868;42.708;23.404;2023-05-29T00:40:16;10.40;;;6.82;;
77701;SDS011;66868;42.708;23.404;2023-05-29T00:42:42;8.55;;;5.88;;
77701;SDS011;66868;42.708;23.404;2023-05-29T00:45:07;7.63;;;6.45;;
77701;SDS011;66868;42.708;23.404;2023-05-29T00:47:33;9.48;;;6.40;;
77701;SDS011;66868;42.708;23.404;2023-05-29T00:49:58;7.60;;;6.80;;
77701;SDS011;66868;42.708;23.404;2023-05-29T00:52:24;13.25;;;6.97;;
77701;SDS011;66868;42.708;23.404;2023-05-29T00:54:51;13.10;;;6.68;;
77701;SDS011;66868;42.708;23.404;2023-05-29T00:57:17;7.88;;;6.00;;
77701;SDS011;66868;42.708;23.404;2023-05-29T00:59:42;12.15;;;7.15;;
77701;SDS011;66868;42.708;23.404;2023-05-29T01:02:10;9.35;;;6.13;;
77701;SDS011;66868;42.708;23.404;2023-05-29T01:04:36;11.82;;;6.57;;
77701;SDS011;66868;42.708;23.404;2023-05-29T01:07:03;10.38;;;6.47;;
77701;SDS011;66868;42.708;23.404;2023-05-29T01:09:29;9.32;;;7.00;;
77701;SDS011;66868;42.708;23.404;2023-05-29T01:17:21;9.10;;;5.88;;
77701;SDS011;66868;42.708;23.404;2023-05-29T01:20:06;12.68;;;7.13;;
77701;SDS011;66868;42.708;23.404;2023-05-29T01:28:15;6.45;;;5.80;;
77701;SDS011;66868;42.708;23.404;2023-05-29T01:30:44;8.93;;;6.55;;
77701;SDS011;66868;42.708;23.404;2023-05-29T01:33:10;9.20;;;6.47;;
77701;SDS011;66868;42.708;23.404;2023-05-29T01:35:36;7.78;;;6.13;;
77701;SDS011;66868;42.708;23.404;2023-05-29T01:38:01;13.00;;;6.60;;
77701;SDS011;66868;42.708;23.404;2023-05-29T01:40:26;11.10;;;7.07;;
77701;SDS011;66868;42.708;23.404;2023-05-29T01:42:52;9.05;;;7.18;;
77701;SDS011;66868;42.708;23.404;2023-05-29T01:45:17;15.80;;;7.78;;
77701;SDS011;66868;42.708;23.404;2023-05-29T01:47:43;12.77;;;7.35;;
77701;SDS011;66868;42.708;23.404;2023-05-29T01:50:09;11.55;;;7.97;;
77701;SDS011;66868;42.708;23.404;2023-05-29T01:52:37;19.33;;;8.35;;
77701;SDS011;66868;42.708;23.404;2023-05-29T01:55:02;12.15;;;7.93;;
77701;SDS011;66868;42.708;23.404;2023-05-29T01:57:28;13.25;;;7.88;;
77701;SDS011;66868;42.708;23.404;2023-05-29T01:59:54;19.90;;;8.40;;
77701;SDS011;66868;42.708;23.404;2023-05-29T02:02:21;10.05;;;8.05;;
77701;SDS011;66868;42.708;23.404;2023-05-29T02:04:47;9.68;;;8.77;;
77701;SDS011;66868;42.708;23.404;2023-05-29T02:07:13;13.18;;;8.00;;
77701;SDS011;66868;42.708;23.404;2023-05-29T02:09:40;8.55;;;7.68;;
77701;SDS011;66868;42.708;23.404;2023-05-29T02:12:06;16.90;;;8.07;;
77701;SDS011;66868;42.708;23.404;2023-05-29T02:14:32;10.68;;;7.75;;
77701;SDS011;66868;42.708;23.404;2023-05-29T02:16:57;17.38;;;8.65;;
77701;SDS011;66868;42.708;23.404;2023-05-29T02:19:23;13.80;;;9.45;;
77701;SDS011;66868;42.708;23.404;2023-05-29T02:21:50;11.35;;;9.10;;
77701;SDS011;66868;42.708;23.404;2023-05-29T02:24:15;20.40;;;12.15;;
77701;SDS011;66868;42.708;23.404;2023-05-29T02:26:41;19.98;;;10.90;;
77701;SDS011;66868;42.708;23.404;2023-05-29T02:29:07;12.23;;;9.27;;
77701;SDS011;66868;42.708;23.404;2023-05-29T02:31:32;11.45;;;9.32;;
77701;SDS011;66868;42.708;23.404;2023-05-29T02:33:58;20.90;;;9.00;;
77701;SDS011;66868;42.708;23.404;2023-05-29T02:36:23;18.42;;;9.30;;
77701;SDS011;66868;42.708;23.404;2023-05-29T02:38:49;21.73;;;9.75;;
77701;SDS011;66868;42.708;23.404;2023-05-29T02:41:15;26.77;;;9.73;;
77701;SDS011;66868;42.708;23.404;2023-05-29T02:43:40;23.20;;;9.48;;
77701;SDS011;66868;42.708;23.404;2023-05-29T02:46:05;17.20;;;9.38;;
77701;SDS011;66868;42.708;23.404;2023-05-29T02:48:31;11.70;;;9.20;;
77701;SDS011;66868;42.708;23.404;2023-05-29T02:50:56;15.48;;;8.98;;
77701;SDS011;66868;42.708;23.404;2023-05-29T02:53:22;10.05;;;8.80;;
77701;SDS011;66868;42.708;23.404;2023-05-29T02:55:48;12.85;;;10.52;;
77701;SDS011;66868;42.708;23.404;2023-05-29T02:58:13;12.52;;;9.02;;
77701;SDS011;66868;42.708;23.404;2023-05-29T03:00:41;12.90;;;9.30;;
77701;SDS011;66868;42.708;23.404;2023-05-29T03:03:06;11.10;;;9.02;;
77701;SDS011;66868;42.708;23.404;2023-05-29T03:05:32;20.33;;;9.55;;
77701;SDS011;66868;42.708;23.404;2023-05-29T03:07:57;13.43;;;8.65;;
77701;SDS011;66868;42.708;23.404;2023-05-29T03:10:22;20.92;;;8.48;;
77701;SDS011;66868;42.708;23.404;2023-05-29T03:12:48;18.23;;;8.77;;
77701;SDS011;66868;42.708;23.404;2023-05-29T03:15:13;16.40;;;8.80;;
77701;SDS011;66868;42.708;23.404;2023-05-29T03:17:39;16.35;;;8.40;;
77701;SDS011;66868;42.708;23.404;2023-05-29T03:20:05;11.27;;;8.27;;
77701;SDS011;66868;42.708;23.404;2023-05-29T03:22:31;11.02;;;7.50;;
77701;SDS011;66868;42.708;23.404;2023-05-29T03:24:57;10.43;;;6.97;;
77701;SDS011;66868;42.708;23.404;2023-05-29T03:27:23;9.30;;;7.60;;
77701;SDS011;66868;42.708;23.404;2023-05-29T03:29:48;9.18;;;7.95;;
77701;SDS011;66868;42.708;23.404;2023-05-29T03:32:13;12.50;;;8.85;;
77701;SDS011;66868;42.708;23.404;2023-05-29T03:34:39;11.10;;;8.32;;
77701;SDS011;66868;42.708;23.404;2023-05-29T03:37:05;12.52;;;9.30;;
77701;SDS011;66868;42.708;23.404;2023-05-29T03:39:30;12.65;;;8.75;;
77701;SDS011;66868;42.708;23.404;2023-05-29T03:41:56;26.73;;;8.95;;
77701;SDS011;66868;42.708;23.404;2023-05-29T03:44:21;14.65;;;7.97;;
77701;SDS011;66868;42.708;23.404;2023-05-29T03:46:46;11.15;;;8.63;;
77701;SDS011;66868;42.708;23.404;2023-05-29T03:49:12;14.38;;;8.30;;
77701;SDS011;66868;42.708;23.404;2023-05-29T03:51:37;13.68;;;8.77;;
77701;SDS011;66868;42.708;23.404;2023-05-29T03:54:03;10.82;;;8.20;;
77701;SDS011;66868;42.708;23.404;2023-05-29T03:56:28;16.35;;;9.80;;
77701;SDS011;66868;42.708;23.404;2023-05-29T03:58:54;14.10;;;8.85;;
77701;SDS011;66868;42.708;23.404;2023-05-29T04:01:19;17.20;;;8.73;;
77701;SDS011;66868;42.708;23.404;2023-05-29T04:03:45;22.35;;;8.13;;
77701;SDS011;66868;42.708;23.404;2023-05-29T04:06:11;13.73;;;9.30;;
77701;SDS011;66868;42.708;23.404;2023-05-29T04:08:36;12.38;;;7.97;;
77701;SDS011;66868;42.708;23.404;2023-05-29T04:11:02;16.40;;;7.88;;
77701;SDS011;66868;42.708;23.404;2023-05-29T04:13:28;14.85;;;9.18;;
77701;SDS011;66868;42.708;23.404;2023-05-29T04:15:54;13.35;;;8.50;;
77701;SDS011;66868;42.708;23.404;2023-05-29T04:18:20;10.90;;;8.15;;
77701;SDS011;66868;42.708;23.404;2023-05-29T04:20:45;13.52;;;8.73;;
77701;SDS011;66868;42.708;23.404;2023-05-29T04:23:12;15.82;;;8.85;;
77701;SDS011;66868;42.708;23.404;2023-05-29T04:25:38;15.02;;;8.23;;
77701;SDS011;66868;42.708;23.404;2023-05-29T04:28:03;9.50;;;8.43;;
77701;SDS011;66868;42.708;23.404;2023-05-29T04:30:28;15.90;;;8.85;;
77701;SDS011;66868;42.708;23.404;2023-05-29T04:32:54;30.77;;;10.02;;
77701;SDS011;66868;42.708;23.404;2023-05-29T04:35:20;41.05;;;9.30;;
77701;SDS011;66868;42.708;23.404;2023-05-29T04:37:46;15.68;;;8.93;;
77701;SDS011;66868;42.708;23.404;2023-05-29T04:40:12;14.43;;;8.48;;
77701;SDS011;66868;42.708;23.404;2023-05-29T04:42:42;10.90;;;7.80;;
77701;SDS011;66868;42.708;23.404;2023-05-29T04:45:09;16.60;;;8.25;;
77701;SDS011;66868;42.708;23.404;2023-05-29T04:47:37;15.88;;;8.18;;
77701;SDS011;66868;42.708;23.404;2023-05-29T04:50:11;21.40;;;8.95;;
77701;SDS011;66868;42.708;23.404;2023-05-29T04:52:37;27.70;;;9.00;;
77701;SDS011;66868;42.708;23.404;2023-05-29T04:55:03;18.45;;;7.90;;
77701;SDS011;66868;42.708;23.404;2023-05-29T04:57:29;22.13;;;8.10;;
77701;SDS011;66868;42.708;23.404;2023-05-29T04:59:55;10.35;;;7.00;;
77701;SDS011;66868;42.708;23.404;2023-05-29T05:02:21;10.82;;;7.13;;
77701;SDS011;66868;42.708;23.404;2023-05-29T05:04:46;9.98;;;7.53;;
77701;SDS011;66868;42.708;23.404;2023-05-29T05:07:12;11.15;;;7.57;;
77701;SDS011;66868;42.708;23.404;2023-05-29T05:09:38;9.15;;;7.55;;
77701;SDS011;66868;42.708;23.404;2023-05-29T05:12:03;13.90;;;7.22;;
77701;SDS011;66868;42.708;23.404;2023-05-29T05:14:29;12.90;;;6.90;;
77701;SDS011;66868;42.708;23.404;2023-05-29T05:16:54;14.50;;;6.53;;
77701;SDS011;66868;42.708;23.404;2023-05-29T05:19:19;14.15;;;7.22;;
77701;SDS011;66868;42.708;23.404;2023-05-29T05:21:45;7.25;;;6.55;;
77701;SDS011;66868;42.708;23.404;2023-05-29T05:24:10;8.77;;;6.85;;
77701;SDS011;66868;42.708;23.404;2023-05-29T05:26:36;16.55;;;7.80;;
77701;SDS011;66868;42.708;23.404;2023-05-29T05:29:01;15.15;;;8.10;;
77701;SDS011;66868;42.708;23.404;2023-05-29T05:31:26;8.52;;;6.50;;
77701;SDS011;66868;42.708;23.404;2023-05-29T05:33:52;8.27;;;7.10;;
77701;SDS011;66868;42.708;23.404;2023-05-29T05:36:18;13.88;;;7.43;;
77701;SDS011;66868;42.708;23.404;2023-05-29T05:38:43;11.07;;;6.75;;
77701;SDS011;66868;42.708;23.404;2023-05-29T05:41:09;7.03;;;6.30;;
77701;SDS011;66868;42.708;23.404;2023-05-29T05:43:35;11.40;;;6.50;;
77701;SDS011;66868;42.708;23.404;2023-05-29T05:46:00;7.40;;;6.70;;
77701;SDS011;66868;42.708;23.404;2023-05-29T05:48:25;6.97;;;6.28;;
77701;SDS011;66868;42.708;23.404;2023-05-29T05:50:51;10.73;;;7.07;;
77701;SDS011;66868;42.708;23.404;2023-05-29T05:53:16;7.95;;;7.20;;
77701;SDS011;66868;42.708;23.404;2023-05-29T05:55:42;14.63;;;8.05;;
77701;SDS011;66868;42.708;23.404;2023-05-29T05:58:08;10.65;;;7.07;;
77701;SDS011;66868;42.708;23.404;2023-05-29T06:00:33;12.00;;;6.57;;
77701;SDS011;66868;42.708;23.404;2023-05-29T06:02:58;9.10;;;6.93;;
77701;SDS011;66868;42.708;23.404;2023-05-29T06:05:25;6.57;;;5.97;;
77701;SDS011;66868;42.708;23.404;2023-05-29T06:07:50;7.40;;;6.13;;
77701;SDS011;66868;42.708;23.404;2023-05-29T06:10:16;7.50;;;5.75;;
77701;SDS011;66868;42.708;23.404;2023-05-29T06:12:41;10.18;;;7.13;;
77701;SDS011;66868;42.708;23.404;2023-05-29T06:15:06;9.68;;;6.70;;
77701;SDS011;66868;42.708;23.404;2023-05-29T06:17:32;11.85;;;7.10;;
77701;SDS011;66868;42.708;23.404;2023-05-29T06:19:58;13.30;;;6.20;;
77701;SDS011;66868;42.708;23.404;2023-05-29T06:22:23;14.60;;;6.75;;
77701;SDS011;66868;42.708;23.404;2023-05-29T06:24:49;6.20;;;5.70;;
77701;SDS011;66868;42.708;23.404;2023-05-29T06:27:14;5.72;;;5.20;;
77701;SDS011;66868;42.708;23.404;2023-05-29T06:29:40;7.80;;;5.60;;
77701;SDS011;66868;42.708;23.404;2023-05-29T06:32:05;5.72;;;5.15;;
77701;SDS011;66868;42.708;23.404;2023-05-29T06:34:31;7.55;;;4.95;;
77701;SDS011;66868;42.708;23.404;2023-05-29T06:36:56;5.90;;;5.40;;
77701;SDS011;66868;42.708;23.404;2023-05-29T06:39:21;6.80;;;5.50;;
77701;SDS011;66868;42.708;23.404;2023-05-29T06:41:47;5.75;;;4.82;;
77701;SDS011;66868;42.708;23.404;2023-05-29T06:44:12;5.95;;;4.43;;
77701;SDS011;66868;42.708;23.404;2023-05-29T06:46:38;5.10;;;4.78;;
77701;SDS011;66868;42.708;23.404;2023-05-29T06:49:03;2.90;;;2.70;;
77701;SDS011;66868;42.708;23.404;2023-05-29T06:51:28;3.20;;;2.90;;
77701;SDS011;66868;42.708;23.404;2023-05-29T06:53:54;3.80;;;3.50;;
77701;SDS011;66868;42.708;23.404;2023-05-29T06:56:20;9.60;;;3.75;;
77701;SDS011;66868;42.708;23.404;2023-05-29T06:58:46;5.00;;;3.78;;
77701;SDS011;66868;42.708;23.404;2023-05-29T07:01:11;3.83;;;3.53;;
77701;SDS011;66868;42.708;23.404;2023-05-29T07:03:36;3.92;;;3.03;;
77701;SDS011;66868;42.708;23.404;2023-05-29T07:06:02;2.70;;;2.50;;
77701;SDS011;66868;42.708;23.404;2023-05-29T07:08:28;3.92;;;2.78;;
77701;SDS011;66868;42.708;23.404;2023-05-29T07:10:54;3.13;;;2.83;;
77701;SDS011;66868;42.708;23.404;2023-05-29T07:13:19;33.00;;;3.97;;
77701;SDS011;66868;42.708;23.404;2023-05-29T07:15:44;7.15;;;3.35;;
77701;SDS011;66868;42.708;23.404;2023-05-29T07:18:10;2.55;;;2.42;;
77701;SDS011;66868;42.708;23.404;2023-05-29T07:20:36;3.47;;;3.17;;
77701;SDS011;66868;42.708;23.404;2023-05-29T07:23:02;4.85;;;3.03;;
77701;SDS011;66868;42.708;23.404;2023-05-29T07:25:27;2.72;;;2.53;;
77701;SDS011;66868;42.708;23.404;2023-05-29T07:27:52;2.75;;;2.63;;
77701;SDS011;66868;42.708;23.404;2023-05-29T07:30:18;2.83;;;2.63;;
77701;SDS011;66868;42.708;23.404;2023-05-29T07:32:44;3.17;;;2.88;;
77701;SDS011;66868;42.708;23.404;2023-05-29T07:35:09;4.18;;;2.20;;
77701;SDS011;66868;42.708;23.404;2023-05-29T07:37:34;2.83;;;2.55;;
77701;SDS011;66868;42.708;23.404;2023-05-29T07:40:00;2.90;;;2.70;;
77701;SDS011;66868;42.708;23.404;2023-05-29T07:42:25;2.28;;;2.20;;
77701;SDS011;66868;42.708;23.404;2023-05-29T07:44:51;3.40;;;3.03;;
77701;SDS011;66868;42.708;23.404;2023-05-29T07:47:17;3.10;;;2.90;;
77701;SDS011;66868;42.708;23.404;2023-05-29T07:49:42;4.03;;;3.20;;
77701;SDS011;66868;42.708;23.404;2023-05-29T07:52:07;2.40;;;2.30;;
77701;SDS011;66868;42.708;23.404;2023-05-29T07:54:34;3.78;;;1.60;;
77701;SDS011;66868;42.708;23.404;2023-05-29T07:56:59;2.85;;;2.05;;
77701;SDS011;66868;42.708;23.404;2023-05-29T07:59:25;3.75;;;2.40;;
77701;SDS011;66868;42.708;23.404;2023-05-29T08:01:51;6.28;;;2.33;;
77701;SDS011;66868;42.708;23.404;2023-05-29T08:04:16;2.25;;;2.15;;
77701;SDS011;66868;42.708;23.404;2023-05-29T08:06:42;2.40;;;2.30;;
77701;SDS011;66868;42.708;23.404;2023-05-29T08:09:08;1.98;;;1.52;;
77701;SDS011;66868;42.708;23.404;2023-05-29T08:11:35;2.28;;;1.80;;
77701;SDS011;66868;42.708;23.404;2023-05-29T08:14:01;2.10;;;1.90;;
77701;SDS011;66868;42.708;23.404;2023-05-29T08:16:27;5.18;;;2.10;;
77701;SDS011;66868;42.708;23.404;2023-05-29T08:18:52;2.80;;;1.95;;
77701;SDS011;66868;42.708;23.404;2023-05-29T08:21:18;1.90;;;1.80;;
77701;SDS011;66868;42.708;23.404;2023-05-29T08:23:44;1.88;;;1.77;;
77701;SDS011;66868;42.708;23.404;2023-05-29T08:26:09;1.58;;;1.55;;
77701;SDS011;66868;42.708;23.404;2023-05-29T08:28:35;2.10;;;2.00;;
77701;SDS011;66868;42.708;23.404;2023-05-29T08:31:00;1.60;;;1.60;;
77701;SDS011;66868;42.708;23.404;2023-05-29T08:33:26;2.05;;;1.95;;
77701;SDS011;66868;42.708;23.404;2023-05-29T08:35:51;2.08;;;1.95;;
77701;SDS011;66868;42.708;23.404;2023-05-29T08:38:16;6.75;;;2.60;;
77701;SDS011;66868;42.708;23.404;2023-05-29T08:40:42;2.20;;;2.10;;
77701;SDS011;66868;42.708;23.404;2023-05-29T08:43:10;2.78;;;2.30;;
77701;SDS011;66868;42.708;23.404;2023-05-29T08:45:38;2.47;;;2.28;;
77701;SDS011;66868;42.708;23.404;2023-05-29T08:48:09;3.20;;;2.53;;
77701;SDS011;66868;42.708;23.404;2023-05-29T08:50:35;5.05;;;2.45;;
77701;SDS011;66868;42.708;23.404;2023-05-29T08:53:04;6.57;;;2.30;;
77701;SDS011;66868;42.708;23.404;2023-05-29T08:55:30;2.13;;;2.03;;
77701;SDS011;66868;42.708;23.404;2023-05-29T08:57:57;2.63;;;2.38;;
77701;SDS011;66868;42.708;23.404;2023-05-29T09:00:22;2.78;;;2.45;;
77701;SDS011;66868;42.708;23.404;2023-05-29T09:02:53;4.20;;;2.20;;
77701;SDS011;66868;42.708;23.404;2023-05-29T09:05:20;2.70;;;2.28;;
77701;SDS011;66868;42.708;23.404;2023-05-29T09:07:46;9.20;;;2.95;;
77701;SDS011;66868;42.708;23.404;2023-05-29T09:10:12;3.67;;;2.40;;
77701;SDS011;66868;42.708;23.404;2023-05-29T09:12:38;3.00;;;2.67;;
77701;SDS011;66868;42.708;23.404;2023-05-29T09:15:08;2.55;;;2.35;;
77701;SDS011;66868;42.708;23.404;2023-05-29T09:17:42;4.93;;;2.25;;
77701;SDS011;66868;42.708;23.404;2023-05-29T09:20:17;2.40;;;2.30;;
77701;SDS011;66868;42.708;23.404;2023-05-29T09:22:52;2.17;;;2.08;;
77701;SDS011;66868;42.708;23.404;2023-05-29T09:25:20;5.32;;;2.65;;
77701;SDS011;66868;42.708;23.404;2023-05-29T09:27:48;2.25;;;2.15;;
77701;SDS011;66868;42.708;23.404;2023-05-29T09:30:39;2.42;;;2.28;;
77701;SDS011;66868;42.708;23.404;2023-05-29T09:33:10;2.88;;;2.67;;
77701;SDS011;66868;42.708;23.404;2023-05-29T09:38:07;2.47;;;2.38;;
77701;SDS011;66868;42.708;23.404;2023-05-29T09:40:33;5.22;;;2.90;;
77701;SDS011;66868;42.708;23.404;2023-05-29T09:45:29;11.73;;;2.38;;
77701;SDS011;66868;42.708;23.404;2023-05-29T09:47:56;2.70;;;2.47;;
77701;SDS011;66868;42.708;23.404;2023-05-29T09:50:24;2.90;;;2.70;;
77701;SDS011;66868;42.708;23.404;2023-05-29T09:52:51;5.50;;;2.63;;
77701;SDS011;66868;42.708;23.404;2023-05-29T09:55:21;2.90;;;2.70;;
77701;SDS011;66868;42.708;23.404;2023-05-29T09:57:48;2.83;;;2.72;;
77701;SDS011;66868;42.708;23.404;2023-05-29T10:00:15;10.25;;;2.42;;
77701;SDS011;66868;42.708;23.404;2023-05-29T10:02:42;3.00;;;2.90;;
77701;SDS011;66868;42.708;23.404;2023-05-29T10:05:07;2.45;;;2.28;;
77701;SDS011;66868;42.708;23.404;2023-05-29T10:07:35;2.80;;;2.60;;
77701;SDS011;66868;42.708;23.404;2023-05-29T10:10:03;3.30;;;2.38;;
77701;SDS011;66868;42.708;23.404;2023-05-29T10:12:42;5.45;;;2.90;;
77701;SDS011;66868;42.708;23.404;2023-05-29T10:15:13;3.28;;;2.97;;
77701;SDS011;66868;42.708;23.404;2023-05-29T10:17:39;2.88;;;2.38;;
77701;SDS011;66868;42.708;23.404;2023-05-29T10:20:29;5.32;;;2.42;;
77701;SDS011;66868;42.708;23.404;2023-05-29T10:22:59;4.00;;;2.67;;
77701;SDS011;66868;42.708;23.404;2023-05-29T10:25:26;9.70;;;2.80;;
77701;SDS011;66868;42.708;23.404;2023-05-29T10:27:55;3.67;;;2.83;;
77701;SDS011;66868;42.708;23.404;2023-05-29T10:30:25;2.75;;;2.53;;
77701;SDS011;66868;42.708;23.404;2023-05-29T10:32:59;4.43;;;2.50;;
77701;SDS011;66868;42.708;23.404;2023-05-29T10:35:40;3.60;;;3.10;;
77701;SDS011;66868;42.708;23.404;2023-05-29T10:38:17;4.18;;;2.88;;
77701;SDS011;66868;42.708;23.404;2023-05-29T10:40:44;2.75;;;2.65;;
77701;SDS011;66868;42.708;23.404;2023-05-29T10:43:31;5.32;;;2.65;;
77701;SDS011;66868;42.708;23.404;2023-05-29T10:46:00;7.53;;;2.67;;
77701;SDS011;66868;42.708;23.404;2023-05-29T10:50:54;2.75;;;2.65;;
77701;SDS011;66868;42.708;23.404;2023-05-29T10:53:24;2.65;;;2.55;;
77701;SDS011;66868;42.708;23.404;2023-05-29T10:55:51;3.08;;;2.85;;
77701;SDS011;66868;42.708;23.404;2023-05-29T10:58:21;11.60;;;2.83;;
77701;SDS011;66868;42.708;23.404;2023-05-29T11:00:50;2.53;;;2.33;;
77701;SDS011;66868;42.708;23.404;2023-05-29T11:05:56;2.95;;;2.75;;
77701;SDS011;66868;42.708;23.404;2023-05-29T11:13:53;4.35;;;2.42;;
77701;SDS011;66868;42.708;23.404;2023-05-29T11:18:54;6.38;;;2.60;;
77701;SDS011;66868;42.708;23.404;2023-05-29T11:23:58;2.55;;;2.35;;
77701;SDS011;66868;42.708;23.404;2023-05-29T11:26:28;2.28;;;2.17;;
77701;SDS011;66868;42.708;23.404;2023-05-29T11:28:57;3.63;;;2.50;;
77701;SDS011;66868;42.708;23.404;2023-05-29T11:31:28;3.33;;;2.90;;
77701;SDS011;66868;42.708;23.404;2023-05-29T11:34:00;2.30;;;2.20;;
77701;SDS011;66868;42.708;23.404;2023-05-29T11:36:29;2.90;;;2.30;;
77701;SDS011;66868;42.708;23.404;2023-05-29T11:38:56;19.48;;;3.00;;
77701;SDS011;66868;42.708;23.404;2023-05-29T11:41:21;3.63;;;2.85;;
77701;SDS011;66868;42.708;23.404;2023-05-29T11:44:00;2.78;;;2.20;;
77701;SDS011;66868;42.708;23.404;2023-05-29T11:46:28;5.28;;;2.72;;
77701;SDS011;66868;42.708;23.404;2023-05-29T11:48:57;5.10;;;2.40;;
77701;SDS011;66868;42.708;23.404;2023-05-29T11:51:26;3.97;;;2.50;;
77701;SDS011;66868;42.708;23.404;2023-05-29T11:53:51;7.60;;;2.63;;
77701;SDS011;66868;42.708;23.404;2023-05-29T11:56:23;7.85;;;2.60;;
77701;SDS011;66868;42.708;23.404;2023-05-29T11:58:51;7.05;;;2.72;;
77701;SDS011;66868;42.708;23.404;2023-05-29T12:01:21;4.43;;;2.40;;
77701;SDS011;66868;42.708;23.404;2023-05-29T12:03:48;2.75;;;2.53;;
77701;SDS011;66868;42.708;23.404;2023-05-29T12:06:14;4.25;;;2.85;;
77701;SDS011;66868;42.708;23.404;2023-05-29T12:08:39;2.70;;;2.50;;
77701;SDS011;66868;42.708;23.404;2023-05-29T12:11:05;3.15;;;2.38;;
77701;SDS011;66868;42.708;23.404;2023-05-29T12:13:31;2.20;;;2.05;;
77701;SDS011;66868;42.708;23.404;2023-05-29T12:16:00;2.00;;;1.90;;
77701;SDS011;66868;42.708;23.404;2023-05-29T12:18:28;2.50;;;2.17;;
77701;SDS011;66868;42.708;23.404;2023-05-29T12:20:58;3.58;;;2.10;;
77701;SDS011;66868;42.708;23.404;2023-05-29T12:23:25;3.53;;;2.40;;
77701;SDS011;66868;42.708;23.404;2023-05-29T12:25:51;17.05;;;3.15;;
77701;SDS011;66868;42.708;23.404;2023-05-29T12:28:18;3.17;;;2.50;;
77701;SDS011;66868;42.708;23.404;2023-05-29T12:30:44;2.00;;;1.90;;
77701;SDS011;66868;42.708;23.404;2023-05-29T12:33:30;2.53;;;2.40;;
77701;SDS011;66868;42.708;23.404;2023-05-29T12:36:04;2.60;;;2.40;;
77701;SDS011;66868;42.708;23.404;2023-05-29T12:38:31;4.32;;;2.67;;
77701;SDS011;66868;42.708;23.404;2023-05-29T12:40:57;3.17;;;2.83;;
77701;SDS011;66868;42.708;23.404;2023-05-29T12:43:22;4.50;;;2.67;;
77701;SDS011;66868;42.708;23.404;2023-05-29T12:45:53;3.05;;;2.83;;
77701;SDS011;66868;42.708;23.404;2023-05-29T12:48:20;4.88;;;2.38;;
77701;SDS011;66868;42.708;23.404;2023-05-29T12:50:47;2.70;;;2.45;;
77701;SDS011;66868;42.708;23.404;2023-05-29T12:53:15;4.00;;;2.65;;
77701;SDS011;66868;42.708;23.404;2023-05-29T12:55:41;11.07;;;2.42;;
77701;SDS011;66868;42.708;23.404;2023-05-29T12:58:11;4.72;;;2.80;;
77701;SDS011;66868;42.708;23.404;2023-05-29T13:00:38;2.90;;;2.80;;
77701;SDS011;66868;42.708;23.404;2023-05-29T13:03:05;3.53;;;2.60;;
77701;SDS011;66868;42.708;23.404;2023-05-29T13:05:31;7.65;;;2.78;;
77701;SDS011;66868;42.708;23.404;2023-05-29T13:07:57;6.82;;;2.40;;
77701;SDS011;66868;42.708;23.404;2023-05-29T13:10:24;4.05;;;2.60;;
77701;SDS011;66868;42.708;23.404;2023-05-29T13:12:50;6.22;;;2.53;;
77701;SDS011;66868;42.708;23.404;2023-05-29T13:15:20;2.53;;;2.33;;
77701;SDS011;66868;42.708;23.404;2023-05-29T13:17:47;2.50;;;2.30;;
77701;SDS011;66868;42.708;23.404;2023-05-29T13:20:12;3.42;;;1.95;;
77701;SDS011;66868;42.708;23.404;2023-05-29T13:22:39;1.80;;;1.70;;
77701;SDS011;66868;42.708;23.404;2023-05-29T13:25:06;1.58;;;1.40;;
77701;SDS011;66868;42.708;23.404;2023-05-29T13:27:34;6.38;;;1.13;;
77701;SDS011;66868;42.708;23.404;2023-05-29T13:30:00;1.10;;;1.10;;
77701;SDS011;66868;42.708;23.404;2023-05-29T13:32:27;3.33;;;1.15;;
77701;SDS011;66868;42.708;23.404;2023-05-29T13:34:52;1.65;;;0.80;;
77701;SDS011;66868;42.708;23.404;2023-05-29T13:37:18;11.88;;;1.85;;
77701;SDS011;66868;42.708;23.404;2023-05-29T13:39:43;15.32;;;1.70;;
77701;SDS011;66868;42.708;23.404;2023-05-29T13:42:08;5.55;;;1.10;;
77701;SDS011;66868;42.708;23.404;2023-05-29T13:44:34;6.95;;;6.20;;
77701;SDS011;66868;42.708;23.404;2023-05-29T13:46:59;15.32;;;5.38;;
77701;SDS011;66868;42.708;23.404;2023-05-29T13:49:25;6.90;;;2.40;;
77701;SDS011;66868;42.708;23.404;2023-05-29T13:51:51;1.85;;;1.75;;
77701;SDS011;66868;42.708;23.404;2023-05-29T13:54:16;32.58;;;2.80;;
77701;SDS011;66868;42.708;23.404;2023-05-29T13:56:44;3.83;;;1.58;;
77701;SDS011;66868;42.708;23.404;2023-05-29T13:59:10;3.20;;;1.35;;
77701;SDS011;66868;42.708;23.404;2023-05-29T14:01:35;3.13;;;1.20;;
77701;SDS011;66868;42.708;23.404;2023-05-29T14:04:01;2.92;;;2.72;;
77701;SDS011;66868;42.708;23.404;2023-05-29T14:06:26;6.18;;;1.58;;
77701;SDS011;66868;42.708;23.404;2023-05-29T14:08:52;3.25;;;1.60;;
77701;SDS011;66868;42.708;23.404;2023-05-29T14:11:18;2.63;;;1.30;;
77701;SDS011;66868;42.708;23.404;2023-05-29T14:13:44;1.42;;;1.35;;
77701;SDS011;66868;42.708;23.404;2023-05-29T14:16:09;1.08;;;1.08;;
77701;SDS011;66868;42.708;23.404;2023-05-29T14:18:34;1.13;;;1.13;;
77701;SDS011;66868;42.708;23.404;2023-05-29T14:21:00;1.48;;;1.05;;
77701;SDS011;66868;42.708;23.404;2023-05-29T14:23:25;1.58;;;1.40;;
77701;SDS011;66868;42.708;23.404;2023-05-29T14:25:51;3.28;;;1.25;;
77701;SDS011;66868;42.708;23.404;2023-05-29T14:28:16;3.60;;;1.20;;
77701;SDS011;66868;42.708;23.404;2023-05-29T14:30:42;1.00;;;1.00;;
77701;SDS011;66868;42.708;23.404;2023-05-29T14:33:08;2.78;;;1.20;;
77701;SDS011;66868;42.708;23.404;2023-05-29T14:35:33;1.10;;;1.10;;
77701;SDS011;66868;42.708;23.404;2023-05-29T14:37:59;4.10;;;0.93;;
77701;SDS011;66868;42.708;23.404;2023-05-29T14:40:25;1.00;;;1.00;;
77701;SDS011;66868;42.708;23.404;2023-05-29T14:42:50;1.20;;;1.20;;
77701;SDS011;66868;42.708;23.404;2023-05-29T14:45:16;1.05;;;1.05;;
77701;SDS011;66868;42.708;23.404;2023-05-29T14:47:42;1.48;;;1.48;;
77701;SDS011;66868;42.708;23.404;2023-05-29T14:50:07;1.17;;;1.00;;
77701;SDS011;66868;42.708;23.404;2023-05-29T14:52:33;1.38;;;1.38;;
77701;SDS011;66868;42.708;23.404;2023-05-29T14:55:04;1.25;;;1.25;;
77701;SDS011;66868;42.708;23.404;2023-05-29T14:57:30;1.95;;;1.58;;
77701;SDS011;66868;42.708;23.404;2023-05-29T14:59:58;3.88;;;1.83;;